sensor_id;sensor_type;location;lat;lon;timestamp;P1;durP1;ratioP1;P2;durP2;ratioP2
37051;SDS011;22964;52.272;13.356;2023-03-01T00:01:11;9.60;;;5.65;;
37051;SDS011;22964;52.272;13.356;2023-03-01T00:03:39;12.90;;;6.07;;
37051;SDS011;22964;52.272;13.356;2023-03-01T00:06:05;11.35;;;5.22;;
37051;SDS011;22964;52.272;13.356;2023-03-01T00:08:31;12.48;;;5.97;;
37051;SDS011;22964;52.272;13.356;2023-03-01T00:13:29;10.03;;;5.33;;
37051;SDS011;22964;52.272;13.356;2023-03-01T00:15:55;10.27;;;5.35;;
37051;SDS011;22964;52.272;13.356;2023-03-01T00:18:21;10.77;;;5.50;;
37051;SDS011;22964;52.272;13.356;2023-03-01T00:20:51;11.27;;;5.45;;
37051;SDS011;22964;52.272;13.356;2023-03-01T00:23:18;9.13;;;5.20;;
37051;SDS011;22964;52.272;13.356;2023-03-01T00:25:44;9.25;;;4.88;;
37051;SDS011;22964;52.272;13.356;2023-03-01T00:28:10;10.13;;;5.80;;
37051;SDS011;22964;52.272;13.356;2023-03-01T00:30:35;10.38;;;5.07;;
37051;SDS011;22964;52.272;13.356;2023-03-01T00:33:02;9.98;;;5.07;;
37051;SDS011;22964;52.272;13.356;2023-03-01T00:35:28;9.18;;;4.97;;
37051;SDS011;22964;52.272;13.356;2023-03-01T00:37:54;9.63;;;5.15;;
37051;SDS011;22964;52.272;13.356;2023-03-01T00:40:26;10.38;;;5.00;;
37051;SDS011;22964;52.272;13.356;2023-03-01T00:42:53;9.82;;;4.95;;
37051;SDS011;22964;52.272;13.356;2023-03-01T00:45:20;9.90;;;5.00;;
37051;SDS011;22964;52.272;13.356;2023-03-01T00:47:46;9.75;;;4.75;;
37051;SDS011;22964;52.272;13.356;2023-03-01T00:50:13;8.95;;;4.85;;
37051;SDS011;22964;52.272;13.356;2023-03-01T00:52:38;9.20;;;4.88;;
37051;SDS011;22964;52.272;13.356;2023-03-01T00:55:05;9.15;;;4.60;;
37051;SDS011;22964;52.272;13.356;2023-03-01T00:57:32;10.10;;;5.40;;
37051;SDS011;22964;52.272;13.356;2023-03-01T00:59:59;8.60;;;4.65;;
37051;SDS011;22964;52.272;13.356;2023-03-01T01:02:25;10.30;;;4.85;;
37051;SDS011;22964;52.272;13.356;2023-03-01T01:04:50;9.00;;;4.90;;
37051;SDS011;22964;52.272;13.356;2023-03-01T01:07:17;12.02;;;4.80;;
37051;SDS011;22964;52.272;13.356;2023-03-01T01:09:45;11.38;;;4.70;;
37051;SDS011;22964;52.272;13.356;2023-03-01T01:12:11;10.73;;;5.10;;
37051;SDS011;22964;52.272;13.356;2023-03-01T01:14:37;8.43;;;4.55;;
37051;SDS011;22964;52.272;13.356;2023-03-01T01:17:02;10.15;;;5.10;;
37051;SDS011;22964;52.272;13.356;2023-03-01T01:19:28;10.05;;;5.13;;
37051;SDS011;22964;52.272;13.356;2023-03-01T01:21:54;9.02;;;4.93;;
37051;SDS011;22964;52.272;13.356;2023-03-01T01:24:20;9.38;;;4.72;;
37051;SDS011;22964;52.272;13.356;2023-03-01T01:26:46;9.82;;;4.97;;
37051;SDS011;22964;52.272;13.356;2023-03-01T01:29:12;8.38;;;4.78;;
37051;SDS011;22964;52.272;13.356;2023-03-01T01:31:39;10.77;;;5.22;;
37051;SDS011;22964;52.272;13.356;2023-03-01T01:34:07;10.15;;;4.90;;
37051;SDS011;22964;52.272;13.356;2023-03-01T01:36:37;7.85;;;4.75;;
37051;SDS011;22964;52.272;13.356;2023-03-01T01:39:03;10.57;;;4.93;;
37051;SDS011;22964;52.272;13.356;2023-03-01T01:41:29;8.70;;;4.70;;
37051;SDS011;22964;52.272;13.356;2023-03-01T01:46:48;9.77;;;4.80;;
37051;SDS011;22964;52.272;13.356;2023-03-01T01:57:22;11.13;;;5.70;;
37051;SDS011;22964;52.272;13.356;2023-03-01T01:59:54;9.93;;;5.03;;
37051;SDS011;22964;52.272;13.356;2023-03-01T02:02:23;11.63;;;5.05;;
37051;SDS011;22964;52.272;13.356;2023-03-01T02:04:49;9.75;;;5.22;;
37051;SDS011;22964;52.272;13.356;2023-03-01T02:07:26;10.65;;;5.50;;
37051;SDS011;22964;52.272;13.356;2023-03-01T02:09:52;11.45;;;5.47;;
37051;SDS011;22964;52.272;13.356;2023-03-01T02:12:19;9.85;;;5.50;;
37051;SDS011;22964;52.272;13.356;2023-03-01T02:14:47;10.38;;;5.20;;
37051;SDS011;22964;52.272;13.356;2023-03-01T02:17:15;11.65;;;5.63;;
37051;SDS011;22964;52.272;13.356;2023-03-01T02:19:58;10.35;;;5.30;;
37051;SDS011;22964;52.272;13.356;2023-03-01T02:22:51;8.10;;;4.82;;
37051;SDS011;22964;52.272;13.356;2023-03-01T02:30:38;11.20;;;5.40;;
37051;SDS011;22964;52.272;13.356;2023-03-01T02:33:25;11.57;;;5.40;;
37051;SDS011;22964;52.272;13.356;2023-03-01T02:35:52;12.85;;;5.78;;
37051;SDS011;22964;52.272;13.356;2023-03-01T02:38:20;10.75;;;5.30;;
37051;SDS011;22964;52.272;13.356;2023-03-01T02:40:47;9.63;;;5.25;;
37051;SDS011;22964;52.272;13.356;2023-03-01T02:43:14;10.38;;;5.25;;
37051;SDS011;22964;52.272;13.356;2023-03-01T02:45:52;8.85;;;5.03;;
37051;SDS011;22964;52.272;13.356;2023-03-01T02:48:18;9.52;;;5.28;;
37051;SDS011;22964;52.272;13.356;2023-03-01T02:53:22;9.77;;;5.07;;
37051;SDS011;22964;52.272;13.356;2023-03-01T02:56:00;10.52;;;4.95;;
37051;SDS011;22964;52.272;13.356;2023-03-01T02:58:26;9.93;;;5.13;;
37051;SDS011;22964;52.272;13.356;2023-03-01T03:00:52;8.73;;;5.18;;
37051;SDS011;22964;52.272;13.356;2023-03-01T03:03:19;9.18;;;5.18;;
37051;SDS011;22964;52.272;13.356;2023-03-01T03:05:46;10.98;;;5.25;;
37051;SDS011;22964;52.272;13.356;2023-03-01T03:08:13;11.38;;;6.10;;
37051;SDS011;22964;52.272;13.356;2023-03-01T03:10:42;10.43;;;4.85;;
37051;SDS011;22964;52.272;13.356;2023-03-01T03:13:12;9.32;;;5.32;;
37051;SDS011;22964;52.272;13.356;2023-03-01T03:15:39;8.55;;;5.07;;
37051;SDS011;22964;52.272;13.356;2023-03-01T03:18:08;9.80;;;5.40;;
37051;SDS011;22964;52.272;13.356;2023-03-01T03:20:35;9.75;;;5.32;;
37051;SDS011;22964;52.272;13.356;2023-03-01T03:23:02;12.73;;;5.43;;
37051;SDS011;22964;52.272;13.356;2023-03-01T03:25:29;9.98;;;5.07;;
37051;SDS011;22964;52.272;13.356;2023-03-01T03:27:55;10.10;;;5.07;;
37051;SDS011;22964;52.272;13.356;2023-03-01T03:30:23;9.25;;;5.55;;
37051;SDS011;22964;52.272;13.356;2023-03-01T03:32:50;11.55;;;5.57;;
37051;SDS011;22964;52.272;13.356;2023-03-01T03:37:47;11.00;;;5.72;;
37051;SDS011;22964;52.272;13.356;2023-03-01T03:44:14;10.52;;;5.45;;
37051;SDS011;22964;52.272;13.356;2023-03-01T03:46:40;11.30;;;5.70;;
37051;SDS011;22964;52.272;13.356;2023-03-01T03:49:06;11.50;;;5.93;;
37051;SDS011;22964;52.272;13.356;2023-03-01T03:51:31;10.82;;;5.43;;
37051;SDS011;22964;52.272;13.356;2023-03-01T03:53:57;12.05;;;5.88;;
37051;SDS011;22964;52.272;13.356;2023-03-01T03:56:23;10.18;;;5.15;;
37051;SDS011;22964;52.272;13.356;2023-03-01T03:58:52;11.85;;;5.82;;
37051;SDS011;22964;52.272;13.356;2023-03-01T04:01:18;9.43;;;5.10;;
37051;SDS011;22964;52.272;13.356;2023-03-01T04:03:43;9.38;;;5.15;;
37051;SDS011;22964;52.272;13.356;2023-03-01T04:06:12;10.43;;;5.60;;
37051;SDS011;22964;52.272;13.356;2023-03-01T04:08:41;11.25;;;6.03;;
37051;SDS011;22964;52.272;13.356;2023-03-01T04:11:06;10.23;;;5.68;;
37051;SDS011;22964;52.272;13.356;2023-03-01T04:13:51;10.02;;;5.22;;
37051;SDS011;22964;52.272;13.356;2023-03-01T04:16:18;9.55;;;5.65;;
37051;SDS011;22964;52.272;13.356;2023-03-01T04:18:45;10.43;;;5.70;;
37051;SDS011;22964;52.272;13.356;2023-03-01T04:21:11;12.13;;;6.13;;
37051;SDS011;22964;52.272;13.356;2023-03-01T04:23:37;11.07;;;5.68;;
37051;SDS011;22964;52.272;13.356;2023-03-01T04:26:04;10.25;;;5.07;;
37051;SDS011;22964;52.272;13.356;2023-03-01T04:28:30;11.10;;;5.57;;
37051;SDS011;22964;52.272;13.356;2023-03-01T04:31:01;11.82;;;5.25;;
37051;SDS011;22964;52.272;13.356;2023-03-01T04:33:38;11.27;;;5.70;;
37051;SDS011;22964;52.272;13.356;2023-03-01T04:36:08;12.27;;;5.45;;
37051;SDS011;22964;52.272;13.356;2023-03-01T04:38:36;10.90;;;5.85;;
37051;SDS011;22964;52.272;13.356;2023-03-01T04:41:03;10.63;;;5.72;;
37051;SDS011;22964;52.272;13.356;2023-03-01T04:43:30;11.07;;;6.03;;
37051;SDS011;22964;52.272;13.356;2023-03-01T04:46:06;12.85;;;6.30;;
37051;SDS011;22964;52.272;13.356;2023-03-01T04:48:37;16.05;;;8.40;;
37051;SDS011;22964;52.272;13.356;2023-03-01T04:51:04;14.43;;;7.18;;
37051;SDS011;22964;52.272;13.356;2023-03-01T04:53:30;13.70;;;6.78;;
37051;SDS011;22964;52.272;13.356;2023-03-01T04:55:57;12.60;;;6.57;;
37051;SDS011;22964;52.272;13.356;2023-03-01T04:58:24;11.48;;;6.30;;
37051;SDS011;22964;52.272;13.356;2023-03-01T05:00:51;10.90;;;5.78;;
37051;SDS011;22964;52.272;13.356;2023-03-01T05:03:17;13.85;;;6.05;;
37051;SDS011;22964;52.272;13.356;2023-03-01T05:05:44;13.63;;;6.30;;
37051;SDS011;22964;52.272;13.356;2023-03-01T05:08:11;10.95;;;6.32;;
37051;SDS011;22964;52.272;13.356;2023-03-01T05:10:43;13.30;;;6.95;;
37051;SDS011;22964;52.272;13.356;2023-03-01T05:13:11;13.50;;;6.45;;
37051;SDS011;22964;52.272;13.356;2023-03-01T05:15:55;11.27;;;6.28;;
37051;SDS011;22964;52.272;13.356;2023-03-01T05:18:23;11.38;;;6.05;;
37051;SDS011;22964;52.272;13.356;2023-03-01T05:20:53;14.00;;;6.25;;
37051;SDS011;22964;52.272;13.356;2023-03-01T05:23:21;11.25;;;6.45;;
37051;SDS011;22964;52.272;13.356;2023-03-01T05:25:48;11.23;;;6.25;;
37051;SDS011;22964;52.272;13.356;2023-03-01T05:28:14;13.05;;;6.45;;
37051;SDS011;22964;52.272;13.356;2023-03-01T05:30:40;12.93;;;6.57;;
37051;SDS011;22964;52.272;13.356;2023-03-01T05:33:07;11.68;;;6.53;;
37051;SDS011;22964;52.272;13.356;2023-03-01T05:35:41;14.52;;;7.03;;
37051;SDS011;22964;52.272;13.356;2023-03-01T05:38:12;12.32;;;6.50;;
37051;SDS011;22964;52.272;13.356;2023-03-01T05:40:44;13.10;;;6.60;;
37051;SDS011;22964;52.272;13.356;2023-03-01T05:43:12;13.48;;;7.25;;
37051;SDS011;22964;52.272;13.356;2023-03-01T05:45:40;11.20;;;6.50;;
37051;SDS011;22964;52.272;13.356;2023-03-01T05:48:06;13.65;;;7.15;;
37051;SDS011;22964;52.272;13.356;2023-03-01T05:50:37;15.40;;;7.30;;
37051;SDS011;22964;52.272;13.356;2023-03-01T05:53:11;14.48;;;6.97;;
37051;SDS011;22964;52.272;13.356;2023-03-01T05:55:40;12.70;;;7.07;;
37051;SDS011;22964;52.272;13.356;2023-03-01T05:58:10;15.25;;;7.28;;
37051;SDS011;22964;52.272;13.356;2023-03-01T06:00:39;14.57;;;6.85;;
37051;SDS011;22964;52.272;13.356;2023-03-01T06:03:05;13.68;;;6.78;;
37051;SDS011;22964;52.272;13.356;2023-03-01T06:05:30;14.02;;;6.90;;
37051;SDS011;22964;52.272;13.356;2023-03-01T06:07:59;14.10;;;7.20;;
37051;SDS011;22964;52.272;13.356;2023-03-01T06:10:26;14.13;;;7.47;;
37051;SDS011;22964;52.272;13.356;2023-03-01T06:12:52;11.82;;;6.72;;
37051;SDS011;22964;52.272;13.356;2023-03-01T06:15:18;12.32;;;6.50;;
37051;SDS011;22964;52.272;13.356;2023-03-01T06:17:45;13.25;;;7.10;;
37051;SDS011;22964;52.272;13.356;2023-03-01T06:20:16;13.57;;;6.95;;
37051;SDS011;22964;52.272;13.356;2023-03-01T06:25:10;12.05;;;6.47;;
37051;SDS011;22964;52.272;13.356;2023-03-01T06:27:37;12.45;;;6.68;;
37051;SDS011;22964;52.272;13.356;2023-03-01T06:30:04;13.20;;;7.03;;
37051;SDS011;22964;52.272;13.356;2023-03-01T06:32:32;14.23;;;7.22;;
37051;SDS011;22964;52.272;13.356;2023-03-01T06:34:57;12.20;;;7.43;;
37051;SDS011;22964;52.272;13.356;2023-03-01T06:37:24;13.35;;;7.40;;
37051;SDS011;22964;52.272;13.356;2023-03-01T06:39:50;15.10;;;7.35;;
37051;SDS011;22964;52.272;13.356;2023-03-01T06:42:15;13.48;;;7.50;;
37051;SDS011;22964;52.272;13.356;2023-03-01T06:44:41;11.30;;;6.43;;
37051;SDS011;22964;52.272;13.356;2023-03-01T06:47:07;12.68;;;6.95;;
37051;SDS011;22964;52.272;13.356;2023-03-01T06:49:33;15.65;;;7.40;;
37051;SDS011;22964;52.272;13.356;2023-03-01T06:51:58;12.18;;;7.25;;
37051;SDS011;22964;52.272;13.356;2023-03-01T06:54:24;12.35;;;7.20;;
37051;SDS011;22964;52.272;13.356;2023-03-01T06:56:50;14.55;;;6.85;;
37051;SDS011;22964;52.272;13.356;2023-03-01T06:59:16;14.15;;;7.03;;
37051;SDS011;22964;52.272;13.356;2023-03-01T07:01:43;15.00;;;6.95;;
37051;SDS011;22964;52.272;13.356;2023-03-01T07:04:10;13.25;;;7.22;;
37051;SDS011;22964;52.272;13.356;2023-03-01T07:06:36;13.70;;;6.88;;
37051;SDS011;22964;52.272;13.356;2023-03-01T07:09:02;15.77;;;7.53;;
37051;SDS011;22964;52.272;13.356;2023-03-01T07:11:27;13.02;;;7.45;;
37051;SDS011;22964;52.272;13.356;2023-03-01T07:13:53;12.95;;;7.18;;
37051;SDS011;22964;52.272;13.356;2023-03-01T07:16:20;16.25;;;8.07;;
37051;SDS011;22964;52.272;13.356;2023-03-01T07:18:45;19.60;;;10.27;;
37051;SDS011;22964;52.272;13.356;2023-03-01T07:21:12;20.33;;;11.68;;
37051;SDS011;22964;52.272;13.356;2023-03-01T07:23:39;24.48;;;11.55;;
37051;SDS011;22964;52.272;13.356;2023-03-01T07:26:05;21.75;;;12.18;;
37051;SDS011;22964;52.272;13.356;2023-03-01T07:28:31;24.15;;;11.90;;
37051;SDS011;22964;52.272;13.356;2023-03-01T07:31:02;25.10;;;11.80;;
37051;SDS011;22964;52.272;13.356;2023-03-01T07:33:28;24.00;;;12.55;;
37051;SDS011;22964;52.272;13.356;2023-03-01T07:35:59;23.27;;;10.88;;
37051;SDS011;22964;52.272;13.356;2023-03-01T07:38:27;20.20;;;10.48;;
37051;SDS011;22964;52.272;13.356;2023-03-01T07:40:53;17.27;;;9.65;;
37051;SDS011;22964;52.272;13.356;2023-03-01T07:43:22;21.10;;;10.48;;
37051;SDS011;22964;52.272;13.356;2023-03-01T07:45:48;22.02;;;10.18;;
37051;SDS011;22964;52.272;13.356;2023-03-01T07:48:14;17.70;;;9.98;;
37051;SDS011;22964;52.272;13.356;2023-03-01T07:50:39;15.13;;;9.35;;
37051;SDS011;22964;52.272;13.356;2023-03-01T07:53:05;17.38;;;9.65;;
37051;SDS011;22964;52.272;13.356;2023-03-01T07:55:31;20.75;;;9.70;;
37051;SDS011;22964;52.272;13.356;2023-03-01T07:57:56;20.17;;;10.05;;
37051;SDS011;22964;52.272;13.356;2023-03-01T08:00:22;18.80;;;10.40;;
37051;SDS011;22964;52.272;13.356;2023-03-01T08:02:48;19.05;;;9.70;;
37051;SDS011;22964;52.272;13.356;2023-03-01T08:05:13;15.45;;;9.10;;
37051;SDS011;22964;52.272;13.356;2023-03-01T08:07:39;15.60;;;9.38;;
37051;SDS011;22964;52.272;13.356;2023-03-01T08:10:05;20.73;;;9.73;;
37051;SDS011;22964;52.272;13.356;2023-03-01T08:12:31;18.15;;;9.25;;
37051;SDS011;22964;52.272;13.356;2023-03-01T08:14:57;17.35;;;10.07;;
37051;SDS011;22964;52.272;13.356;2023-03-01T08:17:23;15.93;;;8.98;;
37051;SDS011;22964;52.272;13.356;2023-03-01T08:19:49;18.70;;;8.90;;
37051;SDS011;22964;52.272;13.356;2023-03-01T08:22:14;14.85;;;8.80;;
37051;SDS011;22964;52.272;13.356;2023-03-01T08:24:40;15.05;;;9.70;;
37051;SDS011;22964;52.272;13.356;2023-03-01T08:27:06;13.15;;;8.45;;
37051;SDS011;22964;52.272;13.356;2023-03-01T08:29:32;14.73;;;8.20;;
37051;SDS011;22964;52.272;13.356;2023-03-01T08:31:58;16.02;;;8.50;;
37051;SDS011;22964;52.272;13.356;2023-03-01T08:34:24;12.43;;;7.28;;
37051;SDS011;22964;52.272;13.356;2023-03-01T08:36:50;12.95;;;6.95;;
37051;SDS011;22964;52.272;13.356;2023-03-01T08:39:17;14.15;;;7.68;;
37051;SDS011;22964;52.272;13.356;2023-03-01T08:41:45;11.30;;;6.85;;
37051;SDS011;22964;52.272;13.356;2023-03-01T08:44:12;10.93;;;6.70;;
37051;SDS011;22964;52.272;13.356;2023-03-01T08:46:40;11.38;;;6.68;;
37051;SDS011;22964;52.272;13.356;2023-03-01T08:49:07;11.48;;;6.90;;
37051;SDS011;22964;52.272;13.356;2023-03-01T08:51:34;11.15;;;6.40;;
37051;SDS011;22964;52.272;13.356;2023-03-01T08:54:02;9.98;;;5.90;;
37051;SDS011;22964;52.272;13.356;2023-03-01T08:56:34;16.20;;;6.07;;
37051;SDS011;22964;52.272;13.356;2023-03-01T08:59:00;11.50;;;5.20;;
37051;SDS011;22964;52.272;13.356;2023-03-01T09:01:26;8.98;;;5.50;;
37051;SDS011;22964;52.272;13.356;2023-03-01T09:03:51;10.82;;;5.70;;
37051;SDS011;22964;52.272;13.356;2023-03-01T09:06:17;11.68;;;5.90;;
37051;SDS011;22964;52.272;13.356;2023-03-01T09:08:44;12.13;;;5.85;;
37051;SDS011;22964;52.272;13.356;2023-03-01T09:11:12;13.65;;;5.63;;
37051;SDS011;22964;52.272;13.356;2023-03-01T09:13:41;10.73;;;5.68;;
37051;SDS011;22964;52.272;13.356;2023-03-01T09:16:07;10.93;;;6.20;;
37051;SDS011;22964;52.272;13.356;2023-03-01T09:18:34;11.35;;;6.35;;
37051;SDS011;22964;52.272;13.356;2023-03-01T09:21:01;13.80;;;6.07;;
37051;SDS011;22964;52.272;13.356;2023-03-01T09:23:32;12.48;;;5.78;;
37051;SDS011;22964;52.272;13.356;2023-03-01T09:26:03;10.30;;;5.80;;
37051;SDS011;22964;52.272;13.356;2023-03-01T09:28:34;12.20;;;5.90;;
37051;SDS011;22964;52.272;13.356;2023-03-01T09:31:00;10.75;;;6.30;;
37051;SDS011;22964;52.272;13.356;2023-03-01T09:33:30;12.50;;;5.82;;
37051;SDS011;22964;52.272;13.356;2023-03-01T09:35:57;9.27;;;5.97;;
37051;SDS011;22964;52.272;13.356;2023-03-01T09:38:23;12.77;;;6.28;;
37051;SDS011;22964;52.272;13.356;2023-03-01T09:40:49;11.25;;;5.68;;
37051;SDS011;22964;52.272;13.356;2023-03-01T09:44:01;11.63;;;6.28;;
37051;SDS011;22964;52.272;13.356;2023-03-01T09:46:10;11.15;;;5.90;;
37051;SDS011;22964;52.272;13.356;2023-03-01T09:48:42;11.75;;;6.18;;
37051;SDS011;22964;52.272;13.356;2023-03-01T09:51:19;12.10;;;5.82;;
37051;SDS011;22964;52.272;13.356;2023-03-01T09:53:55;8.13;;;5.45;;
37051;SDS011;22964;52.272;13.356;2023-03-01T10:02:01;8.23;;;4.88;;
37051;SDS011;22964;52.272;13.356;2023-03-01T10:07:24;9.73;;;4.70;;
37051;SDS011;22964;52.272;13.356;2023-03-01T10:09:57;9.32;;;4.85;;
37051;SDS011;22964;52.272;13.356;2023-03-01T10:12:26;8.13;;;4.60;;
37051;SDS011;22964;52.272;13.356;2023-03-01T10:17:28;8.43;;;4.78;;
37051;SDS011;22964;52.272;13.356;2023-03-01T10:20:18;10.27;;;5.43;;
37051;SDS011;22964;52.272;13.356;2023-03-01T10:22:49;9.35;;;5.13;;
37051;SDS011;22964;52.272;13.356;2023-03-01T10:25:25;8.80;;;5.10;;
37051;SDS011;22964;52.272;13.356;2023-03-01T10:28:07;8.38;;;4.82;;
37051;SDS011;22964;52.272;13.356;2023-03-01T10:30:42;7.13;;;4.68;;
37051;SDS011;22964;52.272;13.356;2023-03-01T10:33:17;11.50;;;5.35;;
37051;SDS011;22964;52.272;13.356;2023-03-01T10:35:49;7.78;;;4.90;;
37051;SDS011;22964;52.272;13.356;2023-03-01T10:38:16;9.60;;;4.72;;
37051;SDS011;22964;52.272;13.356;2023-03-01T10:43:30;7.70;;;4.73;;
37051;SDS011;22964;52.272;13.356;2023-03-01T10:46:30;8.07;;;4.78;;
37051;SDS011;22964;52.272;13.356;2023-03-01T10:49:12;9.95;;;5.07;;
37051;SDS011;22964;52.272;13.356;2023-03-01T10:51:44;8.80;;;4.68;;
37051;SDS011;22964;52.272;13.356;2023-03-01T10:54:32;7.32;;;4.22;;
37051;SDS011;22964;52.272;13.356;2023-03-01T10:56:59;8.27;;;4.03;;
37051;SDS011;22964;52.272;13.356;2023-03-01T11:02:01;7.30;;;4.32;;
37051;SDS011;22964;52.272;13.356;2023-03-01T11:04:56;7.40;;;3.72;;
37051;SDS011;22964;52.272;13.356;2023-03-01T11:07:22;9.77;;;5.03;;
37051;SDS011;22964;52.272;13.356;2023-03-01T11:09:48;8.75;;;4.70;;
37051;SDS011;22964;52.272;13.356;2023-03-01T11:12:14;12.75;;;4.25;;
37051;SDS011;22964;52.272;13.356;2023-03-01T11:14:48;11.57;;;5.25;;
37051;SDS011;22964;52.272;13.356;2023-03-01T11:17:21;8.60;;;5.05;;
37051;SDS011;22964;52.272;13.356;2023-03-01T11:20:38;9.20;;;4.90;;
37051;SDS011;22964;52.272;13.356;2023-03-01T11:22:55;6.88;;;4.22;;
37051;SDS011;22964;52.272;13.356;2023-03-01T11:25:29;11.50;;;4.53;;
37051;SDS011;22964;52.272;13.356;2023-03-01T11:28:07;8.10;;;4.40;;
37051;SDS011;22964;52.272;13.356;2023-03-01T11:30:41;8.23;;;4.03;;
37051;SDS011;22964;52.272;13.356;2023-03-01T11:36:03;7.47;;;4.20;;
37051;SDS011;22964;52.272;13.356;2023-03-01T11:38:40;7.72;;;4.00;;
37051;SDS011;22964;52.272;13.356;2023-03-01T11:41:10;6.38;;;4.00;;
37051;SDS011;22964;52.272;13.356;2023-03-01T11:46:29;7.55;;;4.20;;
37051;SDS011;22964;52.272;13.356;2023-03-01T11:57:15;7.80;;;4.00;;
37051;SDS011;22964;52.272;13.356;2023-03-01T12:10:52;7.57;;;3.50;;
37051;SDS011;22964;52.272;13.356;2023-03-01T12:29:42;7.10;;;4.00;;
37051;SDS011;22964;52.272;13.356;2023-03-01T12:35:25;5.13;;;3.47;;
37051;SDS011;22964;52.272;13.356;2023-03-01T12:40:37;8.15;;;3.67;;
37051;SDS011;22964;52.272;13.356;2023-03-01T12:43:10;6.72;;;3.70;;
37051;SDS011;22964;52.272;13.356;2023-03-01T12:51:32;9.50;;;4.20;;
37051;SDS011;22964;52.272;13.356;2023-03-01T12:54:00;13.18;;;4.72;;
37051;SDS011;22964;52.272;13.356;2023-03-01T12:59:17;8.45;;;4.70;;
37051;SDS011;22964;52.272;13.356;2023-03-01T13:17:49;7.75;;;3.75;;
37051;SDS011;22964;52.272;13.356;2023-03-01T13:20:18;7.05;;;3.50;;
37051;SDS011;22964;52.272;13.356;2023-03-01T13:22:46;6.30;;;3.42;;
37051;SDS011;22964;52.272;13.356;2023-03-01T13:25:14;6.25;;;3.38;;
37051;SDS011;22964;52.272;13.356;2023-03-01T13:27:42;6.55;;;3.42;;
37051;SDS011;22964;52.272;13.356;2023-03-01T13:30:50;5.28;;;3.38;;
37051;SDS011;22964;52.272;13.356;2023-03-01T13:35:53;4.88;;;3.20;;
37051;SDS011;22964;52.272;13.356;2023-03-01T13:41:11;6.32;;;3.10;;
37051;SDS011;22964;52.272;13.356;2023-03-01T13:43:38;7.95;;;3.50;;
37051;SDS011;22964;52.272;13.356;2023-03-01T13:46:11;7.10;;;3.20;;
37051;SDS011;22964;52.272;13.356;2023-03-01T13:48:47;5.93;;;3.15;;
37051;SDS011;22964;52.272;13.356;2023-03-01T13:51:20;5.07;;;3.05;;
37051;SDS011;22964;52.272;13.356;2023-03-01T13:53:48;5.80;;;2.97;;
37051;SDS011;22964;52.272;13.356;2023-03-01T13:56:56;5.30;;;3.40;;
37051;SDS011;22964;52.272;13.356;2023-03-01T13:59:20;6.85;;;3.28;;
37051;SDS011;22964;52.272;13.356;2023-03-01T14:01:54;4.82;;;3.13;;
37051;SDS011;22964;52.272;13.356;2023-03-01T14:09:43;6.63;;;2.80;;
37051;SDS011;22964;52.272;13.356;2023-03-01T14:12:21;5.18;;;2.80;;
37051;SDS011;22964;52.272;13.356;2023-03-01T14:15:13;9.50;;;2.50;;
37051;SDS011;22964;52.272;13.356;2023-03-01T14:20:27;6.72;;;2.80;;
37051;SDS011;22964;52.272;13.356;2023-03-01T14:22:56;6.00;;;3.28;;
37051;SDS011;22964;52.272;13.356;2023-03-01T14:25:26;9.85;;;3.50;;
37051;SDS011;22964;52.272;13.356;2023-03-01T14:27:57;6.55;;;3.17;;
37051;SDS011;22964;52.272;13.356;2023-03-01T14:30:41;7.60;;;3.28;;
37051;SDS011;22964;52.272;13.356;2023-03-01T14:35:59;6.18;;;2.90;;
37051;SDS011;22964;52.272;13.356;2023-03-01T14:41:09;5.90;;;3.10;;
37051;SDS011;22964;52.272;13.356;2023-03-01T14:43:44;7.38;;;3.10;;
37051;SDS011;22964;52.272;13.356;2023-03-01T14:46:38;5.25;;;3.45;;
37051;SDS011;22964;52.272;13.356;2023-03-01T14:49:12;4.70;;;3.15;;
37051;SDS011;22964;52.272;13.356;2023-03-01T14:52:00;7.28;;;3.55;;
37051;SDS011;22964;52.272;13.356;2023-03-01T14:57:03;6.32;;;3.22;;
37051;SDS011;22964;52.272;13.356;2023-03-01T14:59:29;6.25;;;3.70;;
37051;SDS011;22964;52.272;13.356;2023-03-01T15:01:55;6.35;;;3.20;;
37051;SDS011;22964;52.272;13.356;2023-03-01T15:04:24;4.97;;;3.03;;
37051;SDS011;22964;52.272;13.356;2023-03-01T15:06:54;5.43;;;3.05;;
37051;SDS011;22964;52.272;13.356;2023-03-01T15:09:29;5.57;;;3.22;;
37051;SDS011;22964;52.272;13.356;2023-03-01T15:11:58;9.48;;;2.88;;
37051;SDS011;22964;52.272;13.356;2023-03-01T15:14:41;6.53;;;3.15;;
37051;SDS011;22964;52.272;13.356;2023-03-01T15:17:20;5.88;;;2.95;;
37051;SDS011;22964;52.272;13.356;2023-03-01T15:19:49;4.40;;;2.67;;
37051;SDS011;22964;52.272;13.356;2023-03-01T15:22:15;6.25;;;2.65;;
37051;SDS011;22964;52.272;13.356;2023-03-01T15:24:42;5.20;;;2.33;;
37051;SDS011;22964;52.272;13.356;2023-03-01T15:27:19;5.00;;;2.45;;
37051;SDS011;22964;52.272;13.356;2023-03-01T15:29:48;4.10;;;2.60;;
37051;SDS011;22964;52.272;13.356;2023-03-01T15:34:53;4.63;;;2.13;;
37051;SDS011;22964;52.272;13.356;2023-03-01T15:43:36;3.78;;;2.13;;
37051;SDS011;22964;52.272;13.356;2023-03-01T15:46:23;5.63;;;2.17;;
37051;SDS011;22964;52.272;13.356;2023-03-01T15:48:56;3.75;;;2.20;;
37051;SDS011;22964;52.272;13.356;2023-03-01T15:51:27;3.50;;;2.00;;
37051;SDS011;22964;52.272;13.356;2023-03-01T15:54:03;5.95;;;1.90;;
37051;SDS011;22964;52.272;13.356;2023-03-01T15:56:44;4.17;;;2.10;;
37051;SDS011;22964;52.272;13.356;2023-03-01T15:59:09;5.10;;;2.10;;
37051;SDS011;22964;52.272;13.356;2023-03-01T16:01:40;6.28;;;2.30;;
37051;SDS011;22964;52.272;13.356;2023-03-01T16:04:07;3.95;;;2.20;;
37051;SDS011;22964;52.272;13.356;2023-03-01T16:06:54;4.68;;;2.20;;
37051;SDS011;22964;52.272;13.356;2023-03-01T16:09:23;3.05;;;1.95;;
37051;SDS011;22964;52.272;13.356;2023-03-01T16:11:51;4.65;;;2.10;;
37051;SDS011;22964;52.272;13.356;2023-03-01T16:14:18;3.10;;;1.80;;
37051;SDS011;22964;52.272;13.356;2023-03-01T16:16:44;5.20;;;1.92;;
37051;SDS011;22964;52.272;13.356;2023-03-01T16:19:11;3.33;;;1.90;;
37051;SDS011;22964;52.272;13.356;2023-03-01T16:21:37;3.83;;;1.83;;
37051;SDS011;22964;52.272;13.356;2023-03-01T16:24:03;3.80;;;2.20;;
37051;SDS011;22964;52.272;13.356;2023-03-01T16:26:29;4.35;;;2.05;;
37051;SDS011;22964;52.272;13.356;2023-03-01T16:28:56;5.18;;;1.67;;
37051;SDS011;22964;52.272;13.356;2023-03-01T16:31:22;2.90;;;1.60;;
37051;SDS011;22964;52.272;13.356;2023-03-01T16:33:49;3.05;;;1.80;;
37051;SDS011;22964;52.272;13.356;2023-03-01T16:36:17;4.13;;;1.70;;
37051;SDS011;22964;52.272;13.356;2023-03-01T16:38:44;4.95;;;1.70;;
37051;SDS011;22964;52.272;13.356;2023-03-01T16:41:13;2.92;;;1.55;;
37051;SDS011;22964;52.272;13.356;2023-03-01T16:43:41;4.10;;;1.65;;
37051;SDS011;22964;52.272;13.356;2023-03-01T16:46:14;4.18;;;1.73;;
37051;SDS011;22964;52.272;13.356;2023-03-01T16:48:51;4.32;;;1.67;;
37051;SDS011;22964;52.272;13.356;2023-03-01T16:51:17;3.92;;;1.63;;
37051;SDS011;22964;52.272;13.356;2023-03-01T16:53:43;3.35;;;1.70;;
37051;SDS011;22964;52.272;13.356;2023-03-01T16:56:10;2.97;;;1.50;;
37051;SDS011;22964;52.272;13.356;2023-03-01T16:58:37;6.15;;;1.58;;
37051;SDS011;22964;52.272;13.356;2023-03-01T17:01:22;3.33;;;1.60;;
37051;SDS011;22964;52.272;13.356;2023-03-01T17:03:51;3.90;;;1.58;;
37051;SDS011;22964;52.272;13.356;2023-03-01T17:06:18;2.88;;;1.63;;
37051;SDS011;22964;52.272;13.356;2023-03-01T17:08:46;5.25;;;1.67;;